Time;durP1;ratioP1;P1;durP2;ratioP2;P2;SDS_P1;SDS_P2;PMS_P1;PMS_P2;Temp;Humidity;BMP_temperature;BMP_pressure;BME280_temperature;BME280_humidity;BME280_pressure;Samples;Min_cycle;Max_cycle;Signal;HPM_P1;HPM_P2
2022/04/02 00:00:50;;;;;;;8.43;2.60;;;;;;;-2.18;100.00;97830.25;4195859;28;20040;-71
2022/04/02 00:02:50;;;;;;;6.30;2.80;;;;;;;-2.19;100.00;97817.00;4192524;28;20216;-71
2022/04/02 00:04:51;;;;;;;11.10;3.30;;;;;;;-2.13;100.00;97821.19;4197581;28;20048;-71
2022/04/02 00:06:53;;;;;;;5.53;2.75;;;;;;;-2.17;100.00;97821.00;4193322;28;20130;-71
2022/04/02 00:08:54;;;;;;;11.30;3.10;;;;;;;-2.18;100.00;97822.13;4196256;28;20063;-71
2022/04/02 00:10:55;;;;;;;7.25;2.67;;;;;;;-2.17;100.00;97812.88;4190893;28;20050;-71
2022/04/02 00:12:56;;;;;;;5.38;2.95;;;;;;;-2.16;100.00;97819.88;4195947;28;20048;-71
2022/04/02 00:14:56;;;;;;;7.97;3.13;;;;;;;-2.14;100.00;97820.41;4191996;28;20056;-71
2022/04/02 00:16:56;;;;;;;8.27;2.67;;;;;;;-2.12;100.00;97812.75;4198296;28;20053;-71
2022/04/02 00:18:56;;;;;;;8.20;2.92;;;;;;;-2.11;100.00;97821.69;4195961;28;20044;-71
2022/04/02 00:20:58;;;;;;;9.20;2.80;;;;;;;-2.06;100.00;97814.22;4195367;28;20094;-71
2022/04/02 00:25:18;;;;;;;5.43;2.80;;;;;;;-2.08;100.00;97811.00;4194353;28;20306;-71
2022/04/02 00:27:18;;;;;;;4.10;2.08;;;;;;;-2.11;100.00;97803.50;4195534;28;20067;-71
2022/04/02 00:29:18;;;;;;;6.30;2.65;;;;;;;-2.08;100.00;97810.22;4195126;28;20044;-71
2022/04/02 00:31:21;;;;;;;7.25;2.67;;;;;;;-2.01;100.00;97811.34;4193602;28;20196;-71
2022/04/02 00:33:21;;;;;;;4.95;2.85;;;;;;;-2.02;99.67;97807.06;4196160;28;20429;-71
2022/04/02 00:35:22;;;;;;;6.50;2.35;;;;;;;-2.00;96.92;97806.72;4195313;28;20079;-71
2022/04/02 00:37:22;;;;;;;6.85;2.08;;;;;;;-1.99;94.90;97808.34;4194168;28;20123;-71
2022/04/02 00:39:23;;;;;;;6.18;2.47;;;;;;;-1.92;92.01;97811.41;4190418;28;20476;-71
2022/04/02 00:41:23;;;;;;;3.00;1.90;;;;;;;-1.80;88.99;97813.53;4202801;28;20043;-71
2022/04/02 00:43:25;;;;;;;4.63;1.98;;;;;;;-1.80;88.62;97813.53;4197175;28;20083;-71
2022/04/02 00:45:26;;;;;;;5.13;2.33;;;;;;;-1.77;88.65;97810.97;4198009;28;20040;-71
2022/04/02 00:47:26;;;;;;;5.97;1.95;;;;;;;-1.75;87.37;97814.16;4194434;28;20549;-71
2022/04/02 00:49:28;;;;;;;3.80;1.80;;;;;;;-1.68;87.07;97815.63;4194882;28;20104;-71
2022/04/02 00:51:29;;;;;;;6.68;2.50;;;;;;;-1.70;86.06;97811.34;4195904;28;20546;-71
2022/04/02 00:53:32;;;;;;;6.50;2.20;;;;;;;-1.75;85.88;97808.75;4192292;28;20143;-71
2022/04/02 00:55:33;;;;;;;3.53;1.80;;;;;;;-1.76;86.45;97814.50;4203298;28;20040;-71
2022/04/02 00:57:34;;;;;;;6.43;2.15;;;;;;;-1.76;85.44;97815.28;4196258;28;20498;-71
2022/04/02 00:59:35;;;;;;;8.88;1.77;;;;;;;-1.81;85.77;97811.94;4197063;28;20301;-71
2022/04/02 01:01:37;;;;;;;4.32;2.17;;;;;;;-1.81;85.82;97817.38;4194692;28;20079;-71
2022/04/02 01:03:38;;;;;;;3.30;2.20;;;;;;;-1.84;86.46;97820.69;4196113;28;20431;-71
2022/04/02 01:05:39;;;;;;;5.03;2.00;;;;;;;-1.84;85.29;97818.75;4190959;28;20052;-71
2022/04/02 01:07:39;;;;;;;4.28;2.00;;;;;;;-1.82;85.16;97823.88;4190654;28;20044;-71
2022/04/02 01:09:39;;;;;;;3.17;2.08;;;;;;;-1.83;85.36;97816.84;4195738;28;20044;-71
2022/04/02 01:11:45;;;;;;;2.40;1.88;;;;;;;-1.74;84.05;97825.81;4194590;28;20051;-71
2022/04/02 01:13:45;;;;;;;3.03;1.52;;;;;;;-1.74;83.14;97818.50;4194886;28;20234;-71
2022/04/02 01:15:45;;;;;;;6.72;1.77;;;;;;;-1.82;83.82;97824.69;4199414;28;20049;-71
2022/04/02 01:17:46;;;;;;;8.40;1.70;;;;;;;-1.82;84.11;97829.28;4195519;28;20247;-71
2022/04/02 01:19:46;;;;;;;4.93;1.52;;;;;;;-1.85;83.89;97822.59;4195707;28;20459;-71
2022/04/02 01:21:48;;;;;;;2.92;1.70;;;;;;;-1.89;84.03;97816.22;4191130;28;20485;-71
2022/04/02 01:23:48;;;;;;;6.35;2.00;;;;;;;-1.89;84.69;97821.63;4195788;28;20062;-71
2022/04/02 01:25:49;;;;;;;4.10;2.10;;;;;;;-1.91;84.11;97818.41;4195866;28;20078;-71
2022/04/02 01:27:49;;;;;;;5.78;2.00;;;;;;;-1.88;84.49;97825.16;4193132;28;20110;-71
2022/04/02 01:29:49;;;;;;;7.63;1.85;;;;;;;-1.90;84.52;97828.19;4193867;28;20040;-71
2022/04/02 01:31:50;;;;;;;4.53;1.90;;;;;;;-1.89;84.47;97826.25;4195863;28;20048;-71
2022/04/02 01:33:51;;;;;;;3.78;2.00;;;;;;;-1.89;85.10;97824.34;4197387;28;20083;-71
2022/04/02 01:36:06;;;;;;;5.65;2.38;;;;;;;-1.87;84.27;97840.28;4190905;28;20101;-71
2022/04/02 01:38:06;;;;;;;6.65;2.47;;;;;;;-1.91;84.87;97825.75;4193161;28;20528;-71
2022/04/02 01:40:07;;;;;;;2.10;1.40;;;;;;;-1.92;84.69;97835.00;4193771;28;20071;-71
2022/04/02 01:42:08;;;;;;;4.97;1.98;;;;;;;-1.97;84.87;97833.25;4194629;28;20071;-71
2022/04/02 01:44:08;;;;;;;5.60;1.90;;;;;;;-1.93;84.13;97839.63;4190005;28;20766;-71
2022/04/02 01:46:09;;;;;;;4.50;2.08;;;;;;;-1.95;83.49;97841.84;4197316;28;20071;-71
2022/04/02 01:48:10;;;;;;;2.90;1.70;;;;;;;-1.97;84.63;97833.25;4193505;28;20032;-71
2022/04/02 01:50:10;;;;;;;6.30;2.17;;;;;;;-1.95;83.90;97843.78;4188334;28;20134;-71
2022/04/02 01:52:15;;;;;;;4.43;1.85;;;;;;;-1.92;83.17;97835.00;4194237;28;20131;-71
2022/04/02 01:54:17;;;;;;;4.00;1.90;;;;;;;-1.90;83.22;97836.31;4194078;28;20119;-71
2022/04/02 01:56:17;;;;;;;5.13;2.05;;;;;;;-1.88;82.55;97836.00;4196348;28;20470;-71
2022/04/02 01:58:17;;;;;;;3.08;1.75;;;;;;;-1.91;81.92;97823.84;4193928;28;20040;-71
2022/04/02 02:00:20;;;;;;;6.65;2.28;;;;;;;-1.99;82.37;97838.97;4195076;28;20020;-71
2022/04/02 02:02:20;;;;;;;7.90;2.47;;;;;;;-2.01;83.01;97835.75;4194252;28;20687;-71
2022/04/02 02:04:20;;;;;;;5.22;2.00;;;;;;;-1.98;83.04;97832.44;4195045;28;20101;-71
2022/04/02 02:06:22;;;;;;;4.10;1.90;;;;;;;-2.03;83.47;97834.47;4194329;28;20044;-71
2022/04/02 02:08:23;;;;;;;6.47;2.50;;;;;;;-2.05;83.47;97842.13;4200388;28;20032;-71
2022/04/02 02:10:23;;;;;;;3.33;1.95;;;;;;;-2.09;82.75;97841.13;4193930;28;20040;-71
2022/04/02 02:12:24;;;;;;;2.45;1.92;;;;;;;-2.07;82.78;97831.59;4195116;28;20257;-71
2022/04/02 02:14:24;;;;;;;5.55;1.90;;;;;;;-2.05;82.71;97847.56;4195259;28;20049;-71
2022/04/02 02:16:24;;;;;;;5.70;1.90;;;;;;;-2.05;83.53;97837.50;4195760;28;20143;-71
2022/04/02 02:18:25;;;;;;;3.33;1.83;;;;;;;-2.06;82.71;97846.75;4190433;28;20048;-71
2022/04/02 02:20:25;;;;;;;6.13;1.98;;;;;;;-2.10;83.55;97845.75;4193590;28;20063;-71
2022/04/02 02:22:25;;;;;;;3.60;2.05;;;;;;;-2.13;82.90;97843.69;4193720;28;20088;-71
2022/04/02 02:24:26;;;;;;;3.05;2.00;;;;;;;-2.17;83.80;97844.59;4193727;28;20045;-71
2022/04/02 02:26:26;;;;;;;3.83;2.03;;;;;;;-2.18;83.86;97846.50;4193757;28;20481;-71
2022/04/02 02:28:26;;;;;;;3.28;1.92;;;;;;;-2.19;84.34;97844.91;4194952;28;20365;-71
2022/04/02 02:30:27;;;;;;;6.57;2.10;;;;;;;-2.18;84.22;97843.81;4195658;28;20044;-71
2022/04/02 02:32:27;;;;;;;3.30;1.90;;;;;;;-2.14;83.11;97847.50;4192566;28;20349;-71
2022/04/02 02:36:47;;;;;;;7.50;2.15;;;;;;;-2.15;83.36;97845.06;4192572;28;20043;-71
2022/04/02 02:38:47;;;;;;;5.45;2.20;;;;;;;-2.18;84.16;97843.81;4193897;28;20464;-71
2022/04/02 02:40:49;;;;;;;2.72;1.85;;;;;;;-2.16;83.27;97854.31;4195326;28;20094;-71
2022/04/02 02:42:49;;;;;;;4.18;2.45;;;;;;;-2.18;82.79;97848.41;4199329;28;20075;-71
2022/04/02 02:44:50;;;;;;;6.03;2.05;;;;;;;-2.16;83.05;97854.31;4194832;28;20048;-71
2022/04/02 02:46:50;;;;;;;3.47;1.75;;;;;;;-2.21;82.74;97849.06;4190919;28;20074;-71
2022/04/02 02:48:50;;;;;;;4.90;1.95;;;;;;;-2.17;83.66;97856.25;4190840;28;20044;-71
2022/04/02 02:50:51;;;;;;;4.13;2.08;;;;;;;-2.18;83.52;97848.41;4195430;28;20048;-71
2022/04/02 02:52:51;;;;;;;5.53;1.75;;;;;;;-2.19;84.10;97849.53;4195910;28;20063;-71
2022/04/02 02:54:52;;;;;;;5.00;1.90;;;;;;;-2.17;83.07;97852.72;4194020;28;20037;-71
2022/04/02 02:56:53;;;;;;;2.50;1.92;;;;;;;-2.18;83.35;97853.84;4194396;28;20048;-71
2022/04/02 02:58:53;;;;;;;3.05;1.98;;;;;;;-2.21;83.27;97857.97;4197134;28;20055;-71
2022/04/02 03:00:54;;;;;;;8.07;2.05;;;;;;;-2.24;83.44;97861.28;4196028;28;20049;-71
2022/04/02 03:02:55;;;;;;;2.67;1.98;;;;;;;-2.27;83.43;97859.22;4196566;28;20044;-71
2022/04/02 03:04:55;;;;;;;2.92;2.00;;;;;;;-2.28;83.21;97861.13;4198415;28;20307;-71
2022/04/02 03:06:55;;;;;;;5.25;2.03;;;;;;;-2.29;82.72;97856.81;4199555;28;20060;-71
2022/04/02 03:08:56;;;;;;;4.22;1.90;;;;;;;-2.30;83.11;97851.72;4197960;28;20059;-71
2022/04/02 03:10:56;;;;;;;2.80;1.90;;;;;;;-2.29;82.76;97856.81;4202906;28;20119;-71
2022/04/02 03:12:58;;;;;;;4.85;2.05;;;;;;;-2.31;82.50;97859.03;4198544;28;20130;-71
2022/04/02 03:14:59;;;;;;;3.53;1.90;;;;;;;-2.30;82.52;97857.13;4192619;28;20157;-71
2022/04/02 03:16:59;;;;;;;4.75;2.47;;;;;;;-2.29;82.57;97866.84;4198570;28;20045;-71
2022/04/02 03:19:02;;;;;;;2.75;1.75;;;;;;;-2.34;81.73;97869.69;4196541;28;20047;-71
2022/04/02 03:21:02;;;;;;;3.75;1.95;;;;;;;-2.37;82.64;97867.59;4196608;28;20048;-71
2022/04/02 03:23:04;;;;;;;3.30;2.05;;;;;;;-2.32;82.00;97871.00;4196403;28;20050;-71
2022/04/02 03:25:09;;;;;;;4.53;2.10;;;;;;;-2.40;81.75;97869.03;4195622;28;20049;-71
2022/04/02 03:27:09;;;;;;;4.90;2.13;;;;;;;-2.43;82.79;97866.91;4196428;28;20271;-71
2022/04/02 03:29:09;;;;;;;4.00;1.75;;;;;;;-2.41;82.07;97861.97;4198977;28;20082;-71
2022/04/02 03:31:09;;;;;;;7.45;1.95;;;;;;;-2.39;81.34;97870.63;4201259;28;20036;-71
2022/04/02 03:33:10;;;;;;;5.05;2.40;;;;;;;-2.39;82.32;97881.47;4196274;28;20040;-71
2022/04/02 03:35:16;;;;;;;5.40;2.42;;;;;;;-2.42;81.69;97878.53;4196576;28;20044;-71
2022/04/02 03:37:16;;;;;;;7.22;1.90;;;;;;;-2.42;81.80;97876.63;4198452;28;20054;-71
2022/04/02 03:39:16;;;;;;;3.60;1.95;;;;;;;-2.43;81.30;97879.66;4198135;28;20044;-71
2022/04/02 03:41:17;;;;;;;2.55;1.90;;;;;;;-2.47;81.55;97875.97;4196644;28;20389;-71
2022/04/02 03:43:17;;;;;;;3.65;1.95;;;;;;;-2.44;81.42;97886.19;4194876;28;20101;-71
2022/04/02 03:45:20;;;;;;;4.03;2.05;;;;;;;-2.44;81.40;97883.47;4197124;28;20096;-71
2022/04/02 03:47:22;;;;;;;5.85;2.25;;;;;;;-2.48;81.03;97890.59;4195146;28;20416;-70
2022/04/02 03:49:23;;;;;;;3.67;1.63;;;;;;;-2.51;81.85;97888.53;4196952;28;20039;-71
2022/04/02 03:51:23;;;;;;;2.42;1.92;;;;;;;-2.53;80.62;97888.03;4199199;28;20036;-71
2022/04/02 03:53:23;;;;;;;2.65;1.80;;;;;;;-2.56;82.67;97889.47;4197873;28;20043;-71
2022/04/02 03:55:25;;;;;;;6.15;2.15;;;;;;;-2.57;82.23;97887.84;4196561;28;20051;-71
2022/04/02 03:57:25;;;;;;;10.98;3.13;;;;;;;-2.57;82.64;97898.66;4193886;28;20047;-71
2022/04/02 03:59:26;;;;;;;4.00;2.33;;;;;;;-2.59;82.31;97901.69;4193419;28;20568;-71
2022/04/02 04:01:26;;;;;;;3.13;1.90;;;;;;;-2.60;81.67;97893.88;4194824;28;20359;-71
2022/04/02 04:03:26;;;;;;;3.80;2.08;;;;;;;-2.58;82.75;97887.03;4198794;28;20129;-71
2022/04/02 04:05:28;;;;;;;3.67;1.98;;;;;;;-2.58;82.17;97894.34;4195661;28;20472;-71
2022/04/02 04:07:29;;;;;;;6.40;2.45;;;;;;;-2.60;82.33;97891.16;4197258;28;20090;-71
2022/04/02 04:09:29;;;;;;;4.75;2.10;;;;;;;-2.61;82.19;97898.50;4190280;28;20106;-71
2022/04/02 04:11:29;;;;;;;4.60;2.03;;;;;;;-2.55;81.48;97888.34;4194590;28;20048;-71
2022/04/02 04:13:30;;;;;;;7.15;2.20;;;;;;;-2.50;80.91;97898.25;4192278;28;20044;-71
2022/04/02 04:15:30;;;;;;;5.25;1.98;;;;;;;-2.55;82.06;97901.88;4195402;28;20355;-71
2022/04/02 04:17:30;;;;;;;4.28;1.95;;;;;;;-2.53;80.99;97907.00;4195324;28;20739;-70
2022/04/02 04:19:31;;;;;;;2.33;1.70;;;;;;;-2.55;82.08;97907.31;4195578;28;20369;-71
2022/04/02 04:21:32;;;;;;;6.68;2.63;;;;;;;-2.63;81.58;97911.53;4195202;28;20055;-70
2022/04/02 04:23:34;;;;;;;6.07;2.20;;;;;;;-2.63;81.85;97916.16;4195802;28;20052;-71
2022/04/02 04:25:34;;;;;;;;;;;;;;;-2.64;81.47;97919.97;4195059;28;20303;-70
2022/04/02 04:27:35;;;;;;;2.78;1.90;;;;;;;-2.63;81.43;97918.88;4195967;28;19920;-70
2022/04/02 04:29:36;;;;;;;5.35;2.65;;;;;;;-2.64;81.33;97928.91;4197146;28;20091;-70
2022/04/02 04:31:37;;;;;;;4.07;2.00;;;;;;;-2.64;81.43;97931.59;4197077;28;20040;-70
2022/04/02 04:33:38;;;;;;;8.05;2.78;;;;;;;-2.63;81.65;97930.50;4193916;28;20063;-70
2022/04/02 04:35:38;;;;;;;3.70;1.98;;;;;;;-2.67;81.99;97925.97;4195076;28;20045;-70
2022/04/02 04:37:38;;;;;;;4.53;2.30;;;;;;;-2.70;81.77;97935.53;4194827;28;20158;-70
2022/04/02 04:39:39;;;;;;;7.32;2.50;;;;;;;-2.72;81.77;97937.75;4190318;28;20515;-70
2022/04/02 04:41:41;;;;;;;5.10;2.42;;;;;;;-2.74;82.08;97937.22;4192759;28;20082;-70
2022/04/02 04:43:41;;;;;;;5.03;2.45;;;;;;;-2.77;82.32;97943.25;4202123;28;20496;-70
2022/04/02 04:45:42;;;;;;;3.72;2.08;;;;;;;-2.78;82.54;97936.25;4196398;28;20178;-70
2022/04/02 04:47:46;;;;;;;3.25;2.05;;;;;;;-2.78;82.38;97947.06;4197413;28;20051;-70
2022/04/02 04:49:46;;;;;;;7.07;2.17;;;;;;;-2.71;81.77;97952.88;4197381;28;20048;-70
2022/04/02 04:51:47;;;;;;;4.88;2.80;;;;;;;-2.72;81.83;97959.41;4191641;28;20040;-70
2022/04/02 04:53:47;;;;;;;7.80;2.80;;;;;;;-2.73;81.90;97959.69;4198226;28;20458;-70
2022/04/02 04:55:48;;;;;;;5.25;2.45;;;;;;;-2.76;82.68;97960.31;4195969;28;20040;-70
2022/04/02 04:57:49;;;;;;;4.18;2.10;;;;;;;-2.75;82.16;97959.19;4189692;28;20465;-70
2022/04/02 04:59:49;;;;;;;6.90;2.40;;;;;;;-2.82;81.30;97965.81;4194406;28;20159;-70
2022/04/02 05:01:49;;;;;;;3.33;2.17;;;;;;;-2.81;81.90;97961.22;4199716;28;20114;-70
2022/04/02 05:03:50;;;;;;;4.15;3.47;;;;;;;-2.82;82.05;97967.72;4194643;28;20313;-70
2022/04/02 05:05:52;;;;;;;3.40;2.25;;;;;;;-2.85;82.29;97962.94;4196240;28;20453;-70
2022/04/02 05:07:53;;;;;;;9.25;2.83;;;;;;;-2.84;82.51;97969.94;4192077;28;20121;-70
2022/04/02 05:09:53;;;;;;;3.53;1.90;;;;;;;-2.83;81.60;97960.72;4193656;28;20040;-70
2022/04/02 05:11:53;;;;;;;6.40;2.22;;;;;;;-2.83;82.06;97972.34;4194927;28;20444;-70
2022/04/02 05:13:54;;;;;;;4.35;2.25;;;;;;;-2.85;81.52;97973.75;4194820;28;20388;-70
2022/04/02 05:15:54;;;;;;;8.15;2.17;;;;;;;-2.84;82.30;97978.06;4194698;28;20447;-70
2022/04/02 05:17:56;;;;;;;4.97;2.40;;;;;;;-2.79;82.24;97972.56;4187939;28;20135;-70
2022/04/02 05:19:56;;;;;;;5.13;2.50;;;;;;;-2.78;82.67;97978.78;4195642;28;20051;-70
2022/04/02 05:21:56;;;;;;;4.43;2.25;;;;;;;-2.76;81.98;97982.78;4194126;28;20040;-70
2022/04/02 05:23:56;;;;;;;5.30;2.50;;;;;;;-2.76;82.60;97973.84;4194947;28;20579;-70
2022/04/02 05:25:58;;;;;;;4.45;2.50;;;;;;;-2.73;81.95;97982.19;4195180;28;20046;-70
2022/04/02 05:27:58;;;;;;;4.45;2.95;;;;;;;-2.73;81.94;97982.19;4186834;28;20116;-70
2022/04/02 05:29:59;;;;;;;5.45;2.50;;;;;;;-2.74;82.04;97979.75;4190200;28;20480;-70
2022/04/02 05:31:59;;;;;;;5.32;2.63;;;;;;;-2.74;82.48;97979.75;4191954;28;20087;-70
2022/04/02 05:33:59;;;;;;;5.65;2.58;;;;;;;-2.77;82.48;97992.00;4192291;28;20076;-70
2022/04/02 05:36:00;;;;;;;5.88;2.88;;;;;;;-2.72;82.08;97993.81;4197426;28;20396;-70
2022/04/02 05:38:00;;;;;;;4.97;2.60;;;;;;;-2.71;82.92;97990.78;4194922;28;20051;-70
2022/04/02 05:40:01;;;;;;;5.68;2.38;;;;;;;-2.72;82.08;98007.34;4190240;28;20186;-71
2022/04/02 05:42:02;;;;;;;4.55;2.05;;;;;;;-2.69;82.89;97999.41;4192720;28;20637;-71
2022/04/02 05:44:03;;;;;;;5.43;2.40;;;;;;;-2.67;83.15;97993.69;4196924;28;20039;-71
2022/04/02 05:46:04;;;;;;;4.90;2.80;;;;;;;-2.63;81.52;97997.41;4193868;28;20408;-71
2022/04/02 05:48:04;;;;;;;4.57;2.67;;;;;;;-2.62;82.08;98009.84;4189242;28;20055;-71
2022/04/02 05:50:05;;;;;;;3.17;2.20;;;;;;;-2.61;81.97;98001.41;4196311;28;20040;-71
2022/04/02 05:52:06;;;;;;;4.57;2.30;;;;;;;-2.62;82.58;98009.84;4195402;28;20116;-71
2022/04/02 05:54:06;;;;;;;3.53;2.35;;;;;;;-2.58;81.75;98019.75;4190855;28;20042;-70
2022/04/02 05:56:07;;;;;;;6.18;2.20;;;;;;;-2.56;81.76;98020.28;4191153;28;20262;-70
2022/04/02 05:58:11;;;;;;;6.70;2.40;;;;;;;-2.50;81.99;98017.44;4194280;28;20032;-70
2022/04/02 06:00:15;;;;;;;4.38;2.63;;;;;;;-2.51;82.13;98019.34;4192426;28;20311;-71
2022/04/02 06:02:15;;;;;;;5.22;3.05;;;;;;;-2.51;82.14;98015.84;4189583;28;20048;-71
2022/04/02 06:04:16;;;;;;;8.70;4.80;;;;;;;-2.43;81.62;98020.53;4196108;28;20036;-71
2022/04/02 06:06:16;;;;;;;6.57;3.55;;;;;;;-2.50;81.99;98020.94;4196942;28;20024;-71
2022/04/02 06:08:17;;;;;;;12.63;5.25;;;;;;;-2.44;82.49;98027.84;4191844;28;20450;-71
2022/04/02 06:10:18;;;;;;;5.07;2.92;;;;;;;-2.37;82.02;98030.16;4190457;28;20576;-70
2022/04/02 06:12:18;;;;;;;7.80;3.45;;;;;;;-2.32;81.88;98040.88;4195319;28;20032;-71
2022/04/02 06:14:19;;;;;;;5.43;3.30;;;;;;;-2.33;81.90;98044.69;4197498;28;20056;-70
2022/04/02 06:16:19;;;;;;;6.15;3.47;;;;;;;-2.25;81.98;98038.56;4188887;28;20376;-70
2022/04/02 06:18:20;;;;;;;4.65;2.80;;;;;;;-2.19;80.94;98036.53;4196221;28;20441;-71
2022/04/02 06:20:20;;;;;;;5.65;3.10;;;;;;;-2.16;81.24;98044.03;4196764;28;20028;-71
2022/04/02 06:22:20;;;;;;;8.82;3.30;;;;;;;-2.10;81.91;98045.53;4191534;28;20040;-71
2022/04/02 06:24:21;;;;;;;4.43;3.20;;;;;;;-2.04;81.47;98055.16;4195745;28;20051;-70
2022/04/02 06:26:21;;;;;;;6.50;3.00;;;;;;;-2.03;81.53;98052.16;4195583;28;20051;-70
2022/04/02 06:28:22;;;;;;;6.30;3.95;;;;;;;-1.98;81.26;98062.09;4192401;28;20078;-71
2022/04/02 06:30:22;;;;;;;7.18;2.88;;;;;;;-1.95;80.75;98060.66;4198653;28;20407;-70
2022/04/02 06:32:23;;;;;;;5.22;3.05;;;;;;;-1.96;81.08;98053.66;4197162;28;20302;-71
2022/04/02 06:34:23;;;;;;;7.30;2.85;;;;;;;-2.02;80.98;98055.66;4200444;28;20040;-70
2022/04/02 06:36:24;;;;;;;6.20;3.75;;;;;;;-1.96;81.38;98064.50;4199388;28;20052;-70
2022/04/02 06:38:25;;;;;;;4.63;3.15;;;;;;;-1.92;80.79;98058.13;4198083;28;20044;-70
2022/04/02 06:40:26;;;;;;;6.63;3.17;;;;;;;-1.96;81.03;98062.56;4193076;28;20453;-70
2022/04/02 06:42:26;;;;;;;6.10;3.63;;;;;;;-1.93;81.42;98074.72;4200319;28;20179;-70
2022/04/02 06:44:29;;;;;;;5.45;2.95;;;;;;;-1.92;81.57;98071.69;4195671;28;20312;-70
2022/04/02 06:46:30;;;;;;;5.95;2.95;;;;;;;-1.86;81.41;98064.25;4196771;28;20804;-70
2022/04/02 06:48:30;;;;;;;6.45;3.17;;;;;;;-1.84;81.45;98065.53;4197213;28;20044;-71
2022/04/02 06:50:30;;;;;;;6.38;3.97;;;;;;;-1.81;81.84;98072.28;4192451;28;20460;-70
2022/04/02 06:52:31;;;;;;;5.20;2.90;;;;;;;-1.81;82.29;98075.78;4198612;28;20067;-70
2022/04/02 06:54:32;;;;;;;7.10;3.30;;;;;;;-1.83;81.25;98071.75;4198911;28;20355;-71
2022/04/02 06:56:32;;;;;;;4.35;2.75;;;;;;;-1.80;81.49;98071.97;4190601;28;20059;-71
2022/04/02 06:58:36;;;;;;;5.40;3.70;;;;;;;-1.76;81.48;98080.28;4197522;28;20048;-71
2022/04/02 07:00:36;;;;;;;8.13;3.53;;;;;;;-1.72;81.48;98079.38;4199122;28;20421;-71
2022/04/02 07:02:38;;;;;;;3.92;3.03;;;;;;;-1.67;81.07;98083.06;4199859;28;20377;-71
2022/04/02 07:04:38;;;;;;;3.67;2.57;;;;;;;-1.66;81.44;98076.50;4195819;28;20075;-71
2022/04/02 07:06:44;;;;;;;6.75;3.28;;;;;;;-1.61;80.87;98082.63;4196565;28;20418;-71
2022/04/02 07:08:44;;;;;;;4.65;3.15;;;;;;;-1.62;81.78;98081.03;4194819;28;20059;-71
2022/04/02 07:10:44;;;;;;;6.18;3.25;;;;;;;-1.55;81.92;98086.84;4195029;28;20040;-71
2022/04/02 07:12:45;;;;;;;8.52;2.97;;;;;;;-1.55;81.49;98086.03;4196582;28;20540;-71
2022/04/02 07:14:45;;;;;;;9.05;3.42;;;;;;;-1.62;81.72;98088.38;4194873;28;20418;-70
2022/04/02 07:16:45;;;;;;;4.97;3.08;;;;;;;-1.65;81.02;98086.28;4197127;28;20052;-70
2022/04/02 07:18:48;;;;;;;3.67;2.88;;;;;;;-1.53;81.45;98090.03;4203929;28;20113;-70
2022/04/02 07:20:51;;;;;;;;;;;;;;;-1.52;81.66;98094.34;4197810;28;20044;-70
2022/04/02 07:22:52;;;;;;;;;;;;;;;-1.55;81.90;98094.97;4197169;28;19916;-70
2022/04/02 07:24:54;;;;;;;5.68;2.90;;;;;;;-1.53;81.65;98089.22;4189393;28;20675;-71
2022/04/02 07:26:56;;;;;;;3.92;2.90;;;;;;;-1.53;81.52;98097.38;4195958;28;20040;-70
2022/04/02 07:28:58;;;;;;;6.33;3.17;;;;;;;-1.59;80.83;98106.72;4194265;28;20209;-70
2022/04/02 07:30:58;;;;;;;5.68;3.17;;;;;;;-1.57;81.82;98104.50;4195501;28;20051;-70
2022/04/02 07:32:59;;;;;;;4.20;3.20;;;;;;;-1.52;82.30;98104.41;4199766;28;20036;-70
2022/04/02 07:34:59;;;;;;;3.97;2.80;;;;;;;-1.40;82.60;98109.28;4193915;28;20311;-70
2022/04/02 07:37:17;;;;;;;5.53;3.20;;;;;;;-1.37;81.50;98112.19;4196524;28;20047;-70
2022/04/02 07:39:22;;;;;;;5.00;3.33;;;;;;;-1.35;81.71;98125.44;4193977;28;20171;-70
2022/04/02 07:41:36;;;;;;;5.57;2.78;;;;;;;-1.36;81.43;98126.53;4194017;28;20436;-70
2022/04/02 07:43:46;;;;;;;8.90;3.60;;;;;;;-1.35;81.40;98128.16;4191394;28;20084;-70
2022/04/02 07:45:58;;;;;;;3.92;2.92;;;;;;;-1.30;81.57;98128.03;4192471;28;20079;-70
2022/04/02 07:47:58;;;;;;;7.40;3.40;;;;;;;-1.22;81.29;98138.16;4194496;28;20064;-70
2022/04/02 07:50:13;;;;;;;5.53;3.45;;;;;;;-1.24;81.25;98140.34;4196365;28;20547;-70
2022/04/02 07:52:14;;;;;;;4.43;3.00;;;;;;;-1.23;81.14;98134.63;4195844;28;20476;-70
2022/04/02 07:54:17;;;;;;;6.18;4.25;;;;;;;-1.25;81.66;98139.53;4191584;28;20070;-70
2022/04/02 07:56:30;;;;;;;5.38;3.75;;;;;;;-1.06;81.10;98138.56;4195528;28;20060;-70
2022/04/02 07:58:32;;;;;;;7.30;3.08;;;;;;;-1.18;81.38;98145.34;4195090;28;20040;-70
2022/04/02 08:00:34;;;;;;;4.78;3.03;;;;;;;-1.15;80.80;98142.03;4198251;28;20097;-70
2022/04/02 08:02:36;;;;;;;;;;;;;;;-1.03;80.45;98146.88;4196991;28;20326;-70
2022/04/02 08:04:36;;;;;;;21.05;10.98;;;;;;;-0.96;80.91;98151.88;4195456;28;20355;-70
2022/04/02 08:06:38;;;;;;;9.57;3.50;;;;;;;-1.12;80.56;98146.03;4195442;28;20182;-70
2022/04/02 08:08:39;;;;;;;6.07;3.58;;;;;;;-0.92;81.26;98150.13;4192326;28;20060;-70
2022/04/02 08:10:45;;;;;;;7.40;4.05;;;;;;;-0.88;80.98;98149.22;4194393;28;20044;-70
2022/04/02 08:12:46;;;;;;;5.25;3.50;;;;;;;-0.87;80.55;98152.72;4199668;28;20049;-70
2022/04/02 08:14:49;;;;;;;4.70;3.33;;;;;;;-0.71;80.81;98143.06;4196839;28;20496;-71
2022/04/02 08:16:50;;;;;;;6.28;3.63;;;;;;;-0.69;79.44;98142.75;4197280;28;20040;-70
2022/04/02 08:18:53;;;;;;;6.57;3.22;;;;;;;-0.57;79.33;98154.66;4198586;28;20399;-71
2022/04/02 08:20:55;;;;;;;6.72;4.05;;;;;;;-0.47;78.36;98158.22;4194943;28;20057;-71
2022/04/02 08:22:56;;;;;;;4.03;3.08;;;;;;;-0.46;78.89;98160.59;4199634;28;20051;-71
2022/04/02 08:24:58;;;;;;;6.13;3.42;;;;;;;-0.31;77.90;98168.34;4195032;28;20703;-71
2022/04/02 08:27:08;;;;;;;5.28;2.75;;;;;;;-0.25;77.03;98166.28;4193141;28;20048;-71
2022/04/02 08:29:17;;;;;;;4.50;3.20;;;;;;;-0.12;75.98;98176.25;4192180;28;20048;-71
2022/04/02 08:31:25;;;;;;;5.20;3.30;;;;;;;-0.09;76.43;98169.38;4200410;28;20450;-70
2022/04/02 08:33:42;;;;;;;6.63;3.25;;;;;;;-0.06;76.26;98168.75;4189674;28;20052;-70
2022/04/02 08:36:01;;;;;;;5.20;3.22;;;;;;;-0.04;76.41;98172.75;4191247;28;20060;-71
2022/04/02 08:38:47;;;;;;;4.85;3.20;;;;;;;-0.13;75.54;98179.28;4188761;28;20037;-72
2022/04/02 08:41:03;;;;;;;5.15;3.53;;;;;;;-0.06;75.50;98175.00;4195322;28;20083;-71
2022/04/02 08:43:25;;;;;;;4.35;3.00;;;;;;;0.00;75.29;98181.09;4195447;28;20056;-71
2022/04/02 08:45:33;;;;;;;4.80;2.97;;;;;;;0.12;75.98;98180.47;4194265;28;20044;-71
2022/04/02 08:47:54;;;;;;;6.90;3.63;;;;;;;0.27;76.42;98178.09;4192310;28;20044;-71
2022/04/02 08:50:28;;;;;;;6.90;3.13;;;;;;;0.28;75.09;98196.03;4196881;28;20044;-71
2022/04/02 08:52:55;;;;;;;8.25;3.95;;;;;;;0.21;74.42;98192.97;4185700;28;20059;-71
2022/04/02 08:54:58;;;;;;;9.38;4.38;;;;;;;0.23;74.34;98193.44;4195927;28;20040;-71
2022/04/02 08:57:25;;;;;;;16.70;7.18;;;;;;;0.23;75.69;98198.09;4188020;28;20832;-71
2022/04/02 08:59:38;;;;;;;9.10;4.20;;;;;;;0.26;75.08;98192.03;4192290;28;20429;-71
2022/04/02 09:01:41;;;;;;;5.80;3.50;;;;;;;0.47;74.67;98193.00;4193686;28;20527;-71
2022/04/02 09:03:57;;;;;;;4.63;3.05;;;;;;;0.54;74.83;98204.22;4194927;28;20689;-71
2022/04/02 09:06:16;;;;;;;8.35;3.72;;;;;;;0.60;74.36;98202.16;4200479;28;20040;-71
2022/04/02 09:08:38;;;;;;;6.63;2.95;;;;;;;0.60;73.50;98209.53;4193876;28;20167;-71
2022/04/02 09:10:53;;;;;;;7.93;3.22;;;;;;;0.77;72.41;98204.09;4194791;28;20417;-71
2022/04/02 09:13:15;;;;;;;7.07;3.25;;;;;;;0.72;71.34;98199.59;4191877;28;20043;-71
2022/04/02 09:15:29;;;;;;;4.97;3.25;;;;;;;0.82;72.57;98206.63;4196480;28;20048;-71
2022/04/02 09:17:47;;;;;;;7.32;3.00;;;;;;;0.88;72.12;98194.47;4194068;28;20064;-71
2022/04/02 09:20:13;;;;;;;5.80;2.83;;;;;;;1.01;71.13;98198.94;4195453;28;20044;-71
2022/04/02 09:22:39;;;;;;;5.78;3.40;;;;;;;1.00;71.50;98202.81;4194402;28;20150;-71
2022/04/02 09:24:58;;;;;;;7.28;2.90;;;;;;;1.09;71.65;98197.34;4191559;28;20068;-71
2022/04/02 09:27:32;;;;;;;4.93;3.20;;;;;;;1.12;72.19;98191.25;4191066;28;20048;-71
2022/04/02 09:30:17;;;;;;;4.63;2.95;;;;;;;1.22;70.71;98193.63;4196337;28;20100;-72
2022/04/02 09:33:12;;;;;;;6.43;3.10;;;;;;;1.34;70.35;98198.41;4195899;28;20051;-71
2022/04/02 09:35:40;;;;;;;4.15;2.92;;;;;;;1.44;69.12;98195.34;4164502;28;20192;-71
2022/04/02 09:38:10;;;;;;;5.68;2.97;;;;;;;1.46;68.40;98197.75;4159672;28;20076;-71
2022/04/02 09:40:12;;;;;;;4.55;3.08;;;;;;;1.47;68.46;98191.97;4173606;28;20280;-72
2022/04/02 09:42:43;;;;;;;4.65;3.22;;;;;;;1.45;68.44;98201.59;4194389;28;20122;-72
2022/04/02 09:44:59;;;;;;;4.97;3.17;;;;;;;1.51;69.77;98200.31;4188015;28;20205;-71
2022/04/02 09:47:17;;;;;;;4.43;2.90;;;;;;;1.56;68.39;98200.91;4194577;28;20047;-72